createdAt,value
2022-09-23T00:01:25.595Z,7.60
2022-09-23T00:03:53.606Z,7.60
2022-09-23T00:06:23.606Z,7.50
2022-09-23T00:08:52.886Z,7.50
2022-09-23T00:11:22.910Z,7.50
2022-09-23T00:13:53.418Z,7.50
2022-09-23T00:16:24.724Z,7.50
2022-09-23T00:18:54.090Z,7.40
2022-09-23T00:21:23.551Z,7.40
2022-09-23T00:23:51.690Z,7.30
2022-09-23T00:26:21.550Z,7.40
2022-09-23T00:28:50.557Z,7.40
2022-09-23T00:31:20.740Z,7.40
2022-09-23T00:33:48.906Z,7.30
2022-09-23T00:36:18.246Z,7.20
2022-09-23T00:38:46.868Z,7.30
2022-09-23T00:41:16.310Z,7.20
2022-09-23T00:43:46.812Z,7.20
2022-09-23T00:46:18.721Z,7.10
2022-09-23T00:48:49.286Z,7.10
2022-09-23T00:51:22.783Z,7.10
2022-09-23T00:53:52.398Z,7.00
2022-09-23T00:56:23.042Z,7.00
2022-09-23T00:58:52.306Z,7.00
2022-09-23T01:01:21.488Z,7.00
2022-09-23T01:03:50.869Z,6.90
2022-09-23T01:06:20.461Z,6.80
2022-09-23T01:08:48.955Z,6.80
2022-09-23T01:11:41.227Z,6.80
2022-09-23T01:14:27.237Z,6.80
2022-09-23T01:16:59.907Z,6.70
2022-09-23T01:19:57.034Z,6.70
2022-09-23T01:22:35.810Z,6.70
2022-09-23T01:25:31.621Z,6.70
2022-09-23T01:28:17.220Z,6.60
2022-09-23T01:30:53.050Z,6.60
2022-09-23T01:33:25.594Z,6.60
2022-09-23T01:36:08.375Z,6.50
2022-09-23T01:38:44.768Z,6.50
2022-09-23T01:41:26.449Z,6.40
2022-09-23T01:44:01.693Z,6.50
2022-09-23T01:46:36.551Z,6.40
2022-09-23T01:49:10.731Z,6.40
2022-09-23T01:51:42.981Z,6.40
2022-09-23T01:54:16.490Z,6.40
2022-09-23T01:56:52.406Z,6.40
2022-09-23T01:59:26.379Z,6.40
2022-09-23T02:02:01.914Z,6.40
2022-09-23T02:04:39.702Z,6.30
2022-09-23T02:07:11.738Z,6.30
2022-09-23T04:48:28.278Z,4.90
2022-09-23T04:50:56.302Z,4.90
2022-09-23T04:53:24.282Z,4.90
2022-09-23T04:55:52.278Z,4.80
2022-09-23T04:58:23.073Z,4.80
2022-09-23T05:00:51.127Z,4.80
2022-09-23T05:03:19.174Z,4.80
2022-09-23T05:05:47.111Z,4.80
2022-09-23T05:08:15.314Z,4.70
2022-09-23T05:10:43.287Z,4.70
2022-09-23T05:13:11.185Z,4.70
2022-09-23T05:15:40.474Z,4.70
2022-09-23T05:18:08.499Z,4.70
2022-09-23T05:20:36.429Z,4.70
2022-09-23T05:23:04.422Z,4.80
2022-09-23T05:25:36.306Z,4.70
2022-09-23T05:28:06.845Z,4.70
2022-09-23T05:30:35.028Z,4.80
2022-09-23T05:33:04.446Z,4.80
2022-09-23T05:35:32.370Z,4.90
2022-09-23T05:38:00.334Z,4.90
2022-09-23T05:40:28.312Z,4.90
2022-09-23T05:42:56.458Z,4.90
2022-09-23T05:45:26.816Z,5.00
2022-09-23T05:47:54.966Z,5.00
2022-09-23T05:50:24.378Z,4.90
2022-09-23T05:52:52.365Z,4.90
2022-09-23T05:55:20.482Z,5.00
2022-09-23T05:57:48.379Z,5.00
2022-09-23T06:00:16.628Z,5.00
2022-09-23T06:02:44.658Z,5.10
2022-09-23T06:05:13.632Z,5.10
2022-09-23T06:07:42.886Z,5.10
2022-09-23T06:10:11.069Z,5.20
2022-09-23T06:12:39.041Z,5.20
2022-09-23T06:15:08.292Z,5.30
2022-09-23T06:17:36.209Z,5.20
2022-09-23T06:20:04.488Z,5.30
2022-09-23T06:22:35.408Z,5.30
2022-09-23T06:25:07.428Z,5.40
2022-09-23T06:27:35.306Z,5.50
2022-09-23T06:30:03.551Z,5.50
2022-09-23T06:32:31.475Z,5.60
2022-09-23T06:34:59.654Z,5.70
2022-09-23T06:37:27.953Z,5.70
2022-09-23T06:39:55.944Z,5.80
2022-09-23T06:42:25.300Z,5.90
2022-09-23T06:44:53.252Z,6.00
2022-09-23T06:47:21.173Z,6.00
2022-09-23T06:49:49.161Z,6.10
2022-09-23T06:52:17.424Z,6.20
2022-09-23T06:54:45.498Z,6.20
2022-09-23T06:57:13.508Z,6.30
2022-09-23T06:59:42.908Z,6.40
2022-09-23T07:02:14.296Z,6.40
2022-09-23T07:04:42.334Z,6.50
2022-09-23T07:07:11.513Z,6.60
2022-09-23T07:09:39.504Z,6.60
2022-09-23T07:12:08.222Z,6.70
2022-09-23T07:14:36.088Z,6.80
2022-09-23T07:17:05.738Z,6.90
2022-09-23T07:19:36.194Z,6.90
2022-09-23T07:22:05.129Z,7.00
2022-09-23T07:24:33.718Z,7.10
2022-09-23T07:27:02.102Z,7.10
2022-09-23T07:29:37.525Z,7.20
2022-09-23T07:32:14.260Z,7.30
2022-09-23T07:34:43.172Z,7.30
2022-09-23T07:37:11.343Z,7.40
2022-09-23T07:39:39.810Z,7.50
2022-09-23T07:42:08.062Z,7.50
2022-09-23T07:44:36.236Z,7.60
2022-09-23T07:47:05.123Z,7.80
2022-09-23T07:49:36.785Z,8.00
2022-09-23T07:52:05.473Z,8.10
2022-09-23T07:54:33.543Z,8.20
2022-09-23T07:57:02.058Z,8.30
2022-09-23T07:59:30.014Z,8.30
2022-09-23T08:01:58.214Z,8.40
2022-09-23T08:04:28.205Z,8.50
2022-09-23T08:07:00.122Z,8.50
2022-09-23T08:09:31.810Z,8.60
2022-09-23T08:12:00.035Z,8.70
2022-09-23T08:14:28.092Z,8.80
2022-09-23T08:16:56.903Z,8.90
2022-09-23T08:19:25.089Z,9.20
2022-09-23T08:21:55.744Z,9.40
2022-09-23T08:24:26.472Z,9.70
2022-09-23T08:26:55.380Z,9.90
2022-09-23T08:29:24.888Z,10.00
2022-09-23T08:31:53.655Z,10.00
2022-09-23T08:34:23.491Z,10.00
2022-09-23T08:36:52.413Z,9.90
2022-09-23T08:39:21.663Z,9.90
2022-09-23T08:42:08.207Z,9.90
2022-09-23T08:44:48.767Z,10.00
2022-09-23T08:47:22.237Z,10.00
2022-09-23T08:49:59.257Z,10.30
2022-09-23T08:52:33.813Z,10.40
2022-09-23T08:55:03.261Z,10.40
2022-09-23T08:57:44.213Z,10.40
2022-09-23T09:00:20.234Z,10.50
2022-09-23T09:02:49.278Z,10.60
2022-09-23T09:05:23.274Z,10.70
2022-09-23T09:07:51.247Z,10.90
2022-09-23T09:10:23.326Z,11.00
2022-09-23T09:13:04.473Z,11.10
2022-09-23T09:15:32.972Z,11.10
2022-09-23T09:18:07.690Z,11.20
2022-09-23T09:20:41.299Z,11.20
2022-09-23T09:23:21.872Z,11.20
2022-09-23T09:25:51.982Z,11.40
2022-09-23T09:28:30.907Z,11.60
2022-09-23T09:31:02.493Z,11.70
2022-09-23T09:33:38.074Z,11.70
2022-09-23T09:36:15.783Z,11.80
2022-09-23T09:38:43.806Z,12.10
2022-09-23T09:41:17.030Z,12.50
2022-09-23T09:43:52.364Z,12.80
2022-09-23T09:46:45.998Z,13.00
2022-09-23T09:49:24.123Z,13.20
2022-09-23T09:52:13.381Z,13.40
2022-09-23T09:54:41.418Z,13.60
2022-09-23T09:57:18.560Z,13.90
2022-09-23T09:59:47.920Z,14.40
2022-09-23T10:02:27.421Z,15.10
2022-09-23T10:05:01.446Z,15.50
2022-09-23T10:07:31.838Z,15.90
2022-09-23T10:10:31.412Z,16.40
2022-09-23T10:13:15.572Z,16.90
2022-09-23T10:15:45.875Z,17.50
2022-09-23T10:18:29.554Z,17.60
2022-09-23T10:21:08.127Z,17.80
2022-09-23T10:23:41.287Z,18.00
2022-09-23T10:26:10.236Z,18.30
2022-09-23T10:28:46.355Z,18.60
2022-09-23T10:31:17.740Z,18.80
2022-09-23T10:33:50.469Z,18.90
2022-09-23T10:36:19.512Z,19.00
2022-09-23T10:38:50.385Z,19.10
2022-09-23T10:41:48.864Z,19.30
2022-09-23T10:44:47.023Z,19.50
2022-09-23T10:47:28.305Z,19.60
2022-09-23T10:50:14.787Z,19.60
2022-09-23T10:52:54.461Z,19.70
2022-09-23T10:55:36.825Z,19.80
2022-09-23T10:58:52.638Z,19.80
2022-09-23T11:01:32.066Z,19.90
2022-09-23T11:04:44.539Z,19.90
2022-09-23T11:07:21.540Z,19.90
2022-09-23T11:10:41.888Z,20.10
2022-09-23T11:13:10.638Z,20.40
2022-09-23T11:15:48.116Z,19.90
2022-09-23T11:18:48.812Z,19.40
2022-09-23T11:21:41.549Z,19.50
2022-09-23T11:24:31.223Z,20.00
2022-09-23T11:27:09.529Z,20.30
2022-09-23T11:30:04.328Z,20.20
2022-09-23T11:33:04.982Z,20.60
2022-09-23T11:35:37.688Z,21.00
2022-09-23T11:38:13.067Z,21.10
2022-09-23T11:40:45.513Z,21.20
2022-09-23T11:43:21.723Z,21.50
2022-09-23T11:45:56.496Z,22.00
2022-09-23T11:48:31.136Z,22.40
2022-09-23T11:51:02.811Z,22.80
2022-09-23T11:53:39.173Z,23.00
2022-09-23T11:56:13.778Z,23.10
2022-09-23T11:58:53.175Z,23.00
2022-09-23T12:01:37.591Z,23.10
2022-09-23T12:04:19.091Z,23.20
2022-09-23T12:06:53.762Z,23.20
2022-09-23T12:09:53.834Z,23.20
2022-09-23T12:15:20.362Z,23.20
2022-09-23T12:18:35.912Z,23.20
2022-09-23T12:21:49.257Z,22.80
2022-09-23T12:24:47.895Z,22.20
2022-09-23T12:27:29.194Z,22.10
2022-09-23T12:30:01.020Z,22.40
2022-09-23T12:32:29.739Z,22.70
2022-09-23T12:34:57.851Z,22.40
2022-09-23T12:37:29.434Z,22.00
2022-09-23T12:40:03.226Z,21.50
2022-09-23T12:42:32.931Z,21.20
2022-09-23T12:45:42.475Z,20.90
2022-09-23T12:48:43.266Z,20.50
2022-09-23T12:51:22.093Z,20.10
2022-09-23T12:53:58.537Z,20.00
2022-09-23T12:56:58.685Z,19.90
2022-09-23T12:59:30.880Z,20.00
2022-09-23T13:02:11.281Z,20.00
2022-09-23T13:05:09.448Z,20.40
2022-09-23T13:07:45.431Z,20.80
2022-09-23T13:10:19.277Z,20.90
2022-09-23T13:12:48.407Z,20.80
2022-09-23T13:15:25.096Z,20.70
2022-09-23T13:17:53.141Z,20.50
2022-09-23T13:20:36.535Z,20.40
2022-09-23T13:23:26.354Z,20.30
2022-09-23T13:25:57.251Z,20.30
2022-09-23T13:28:36.770Z,20.70
2022-09-23T13:31:13.750Z,21.40
2022-09-23T13:33:44.978Z,22.10
2022-09-23T13:36:15.135Z,22.70
2022-09-23T13:38:43.310Z,23.00
2022-09-23T13:41:16.226Z,23.40
2022-09-23T13:43:46.377Z,23.80
2022-09-23T13:46:20.049Z,24.20
2022-09-23T13:48:49.774Z,24.40
2022-09-23T13:51:24.539Z,24.10
2022-09-23T13:53:56.850Z,23.70
2022-09-23T13:56:26.443Z,23.20
2022-09-23T13:58:55.876Z,23.00
2022-09-23T14:01:32.289Z,23.10
2022-09-23T14:04:01.067Z,23.20
2022-09-23T14:06:31.736Z,23.30
2022-09-23T14:09:02.472Z,23.60
2022-09-23T14:11:33.079Z,23.90
2022-09-23T14:14:07.095Z,24.20
2022-09-23T14:16:40.789Z,24.30
2022-09-23T14:19:16.775Z,24.30
2022-09-23T14:21:44.703Z,24.40
2022-09-23T14:24:23.330Z,24.30
2022-09-23T14:26:54.220Z,24.10
2022-09-23T14:29:26.071Z,23.70
2022-09-23T14:31:58.118Z,23.20
2022-09-23T14:34:46.692Z,22.80
2022-09-23T14:37:43.834Z,22.50
2022-09-23T14:40:15.890Z,22.00
2022-09-23T14:42:47.462Z,21.80
2022-09-23T14:45:19.351Z,21.80
2022-09-23T14:47:51.587Z,21.80
2022-09-23T14:50:39.974Z,21.60
2022-09-23T14:53:33.820Z,21.60
2022-09-23T14:56:17.425Z,21.80
2022-09-23T14:58:54.346Z,21.90
2022-09-23T15:01:37.147Z,21.70
2022-09-23T15:04:16.199Z,21.80
2022-09-23T15:06:48.388Z,21.70
2022-09-23T15:09:23.663Z,21.70
2022-09-23T15:11:58.110Z,22.00
2022-09-23T15:14:44.917Z,22.20
2022-09-23T15:17:25.815Z,22.50
2022-09-23T15:19:58.395Z,22.70
2022-09-23T15:22:27.345Z,22.80
2022-09-23T15:25:09.175Z,22.60
2022-09-23T15:27:37.098Z,22.40
2022-09-23T15:30:18.643Z,22.10
2022-09-23T15:32:47.535Z,21.80
2022-09-23T15:35:19.568Z,21.60
2022-09-23T15:37:49.891Z,21.30
2022-09-23T15:40:22.040Z,21.10
2022-09-23T15:42:52.297Z,20.80
2022-09-23T15:45:22.408Z,20.60
2022-09-23T15:47:52.252Z,20.40
2022-09-23T15:50:21.693Z,20.10
2022-09-23T15:52:49.621Z,19.90
2022-09-23T15:55:21.875Z,19.70
2022-09-23T15:57:50.285Z,19.50
2022-09-23T16:00:18.597Z,19.40
2022-09-23T16:02:48.554Z,19.20
2022-09-23T16:05:23.614Z,19.00
2022-09-23T16:07:53.332Z,18.80
2022-09-23T16:10:23.386Z,18.60
2022-09-23T16:12:54.748Z,18.40
2022-09-23T16:15:24.783Z,18.20
2022-09-23T16:17:54.681Z,18.10
2022-09-23T16:20:24.335Z,17.90
2022-09-23T16:22:55.947Z,17.70
2022-09-23T16:25:28.311Z,17.50
2022-09-23T16:27:57.205Z,17.40
2022-09-23T16:30:26.587Z,17.20
2022-09-23T16:32:54.815Z,17.10
2022-09-23T16:35:26.906Z,17.00
2022-09-23T16:37:55.944Z,16.90
2022-09-23T16:40:25.203Z,16.80
2022-09-23T16:42:54.898Z,16.70
2022-09-23T16:45:23.358Z,16.60
2022-09-23T16:47:52.833Z,16.60
2022-09-23T16:50:23.766Z,16.50
2022-09-23T16:52:56.325Z,16.40
2022-09-23T16:55:28.424Z,16.20
2022-09-23T16:57:56.670Z,16.10
2022-09-23T17:00:42.304Z,16.00
2022-09-23T17:03:30.969Z,16.00
2022-09-23T17:06:02.452Z,15.90
2022-09-23T17:08:32.599Z,15.80
2022-09-23T17:11:01.484Z,15.70
2022-09-23T17:13:31.077Z,15.60
2022-09-23T17:15:59.073Z,15.50
2022-09-23T17:18:28.319Z,15.40
2022-09-23T17:21:03.061Z,15.30
2022-09-23T17:23:31.849Z,15.20
2022-09-23T17:26:00.409Z,15.10
2022-09-23T17:28:28.807Z,15.00
2022-09-23T17:31:00.637Z,14.90
2022-09-23T17:33:30.035Z,14.90
2022-09-23T17:36:00.186Z,14.80
2022-09-23T17:38:29.801Z,14.70
2022-09-23T17:41:01.213Z,14.70
2022-09-23T17:43:31.450Z,14.60
2022-09-23T17:46:05.300Z,14.50
2022-09-23T17:48:34.948Z,14.50
2022-09-23T17:51:04.767Z,14.50
2022-09-23T17:53:36.036Z,14.40
2022-09-23T17:56:05.905Z,14.30
2022-09-23T17:58:36.345Z,14.30
2022-09-23T18:01:05.093Z,14.30
2022-09-23T18:03:33.448Z,14.20
2022-09-23T18:06:09.297Z,14.10
2022-09-23T18:08:39.279Z,14.10
2022-09-23T18:11:16.008Z,14.00
2022-09-23T18:13:47.591Z,14.00
2022-09-23T18:16:15.686Z,13.90
2022-09-23T18:18:44.654Z,13.80
2022-09-23T18:21:12.639Z,13.80
2022-09-23T18:23:42.272Z,13.70
2022-09-23T18:26:15.440Z,13.60
2022-09-23T18:28:43.812Z,13.50
2022-09-23T18:31:12.385Z,13.40
2022-09-23T18:33:40.581Z,13.40
2022-09-23T18:36:10.066Z,13.40
2022-09-23T18:38:38.061Z,13.30
2022-09-23T18:41:08.178Z,13.20
2022-09-23T18:43:41.293Z,13.20
2022-09-23T18:46:13.530Z,13.10
2022-09-23T18:48:59.729Z,13.10
2022-09-23T18:51:29.522Z,13.00
2022-09-23T18:53:58.620Z,12.90
2022-09-23T18:56:33.623Z,12.70
2022-09-23T18:59:01.863Z,12.70
2022-09-23T19:01:29.993Z,12.60
2022-09-23T19:03:58.976Z,12.60
2022-09-23T19:06:27.619Z,12.50
2022-09-23T19:08:56.237Z,12.50
2022-09-23T19:11:24.923Z,12.40
2022-09-23T19:14:00.386Z,12.40
2022-09-23T19:16:28.675Z,12.30
2022-09-23T19:18:56.679Z,12.20
2022-09-23T19:21:25.141Z,12.20
2022-09-23T19:23:54.708Z,12.10
2022-09-23T19:26:25.047Z,12.10
2022-09-23T19:28:54.650Z,12.10
2022-09-23T19:31:25.586Z,12.00
2022-09-23T19:33:56.885Z,12.00
2022-09-23T19:36:26.811Z,12.00
2022-09-23T19:38:56.071Z,11.90
2022-09-23T19:41:24.699Z,11.90
2022-09-23T19:44:02.396Z,11.90
2022-09-23T19:46:32.485Z,11.90
2022-09-23T19:49:01.675Z,11.90
2022-09-23T19:51:29.630Z,11.80
2022-09-23T19:53:57.645Z,11.70
2022-09-23T19:56:25.696Z,11.70
2022-09-23T19:58:55.763Z,11.60
2022-09-23T20:01:24.802Z,11.60
2022-09-23T20:03:54.928Z,11.60
2022-09-23T20:06:23.814Z,11.60
2022-09-23T20:08:52.034Z,11.60
2022-09-23T20:11:26.160Z,11.50
2022-09-23T20:14:00.920Z,11.50
2022-09-23T20:16:31.948Z,11.50
2022-09-23T20:19:03.147Z,11.50
2022-09-23T20:21:31.298Z,11.40
2022-09-23T20:23:59.329Z,11.40
2022-09-23T20:26:44.713Z,11.40
2022-09-23T20:29:12.779Z,11.30
2022-09-23T20:31:41.196Z,11.30
2022-09-23T20:34:11.171Z,11.20
2022-09-23T20:36:41.354Z,11.20
2022-09-23T20:39:10.566Z,11.20
2022-09-23T20:41:39.663Z,11.20
2022-09-23T20:44:12.347Z,11.20
2022-09-23T20:46:45.267Z,11.20
2022-09-23T20:49:17.755Z,11.20
2022-09-23T20:51:47.780Z,11.20
2022-09-23T20:54:16.432Z,11.20
2022-09-23T20:56:44.425Z,11.30
2022-09-23T20:59:14.968Z,11.30
2022-09-23T21:01:43.581Z,11.10
2022-09-23T21:04:11.632Z,11.10
2022-09-23T21:06:41.117Z,11.00
2022-09-23T21:09:09.131Z,11.00
2022-09-23T21:11:38.023Z,11.00
2022-09-23T21:14:06.186Z,10.90
2022-09-23T21:16:34.334Z,10.90
2022-09-23T21:19:03.832Z,10.90
2022-09-23T21:21:31.896Z,10.90
2022-09-23T21:24:23.867Z,10.90
2022-09-23T21:26:50.480Z,10.90
2022-09-23T21:29:19.128Z,10.80
2022-09-23T21:31:49.533Z,10.80
2022-09-23T21:34:17.785Z,10.90
2022-09-23T21:36:47.992Z,10.80
2022-09-23T21:39:17.425Z,10.80
2022-09-23T21:41:45.415Z,10.80
2022-09-23T21:44:13.427Z,10.80
2022-09-23T21:46:41.584Z,10.80
2022-09-23T21:49:09.800Z,10.80
2022-09-23T21:51:40.619Z,10.80
2022-09-23T21:54:12.647Z,10.90
2022-09-23T21:56:42.586Z,10.80
2022-09-23T21:59:11.248Z,10.80
2022-09-23T22:01:42.043Z,10.80
2022-09-23T22:04:15.337Z,10.90
2022-09-23T22:06:43.530Z,10.80
2022-09-23T22:09:14.427Z,10.90
2022-09-23T22:12:01.892Z,10.80
2022-09-23T22:14:30.642Z,10.80
2022-09-23T22:17:01.431Z,10.80
2022-09-23T22:19:34.816Z,10.80
2022-09-23T22:22:06.663Z,10.80
2022-09-23T22:24:34.658Z,10.80
2022-09-23T22:27:04.020Z,10.80
2022-09-23T22:29:49.309Z,10.80
2022-09-23T22:32:34.838Z,10.80
2022-09-23T22:35:02.857Z,10.70
2022-09-23T22:37:34.155Z,10.70
2022-09-23T22:40:03.199Z,10.70
2022-09-23T22:42:32.546Z,10.70
2022-09-23T22:45:00.636Z,10.70
2022-09-23T22:47:28.664Z,10.60
2022-09-23T22:49:56.677Z,10.60
2022-09-23T22:52:25.187Z,10.70
2022-09-23T22:54:53.828Z,10.60
2022-09-23T22:57:21.857Z,10.70
2022-09-23T22:59:51.162Z,10.70
2022-09-23T23:02:21.846Z,10.70
2022-09-23T23:04:50.742Z,10.70
2022-09-23T23:07:21.527Z,10.70
2022-09-23T23:09:50.793Z,10.70
2022-09-23T23:12:20.082Z,10.70
2022-09-23T23:14:50.198Z,10.70
2022-09-23T23:17:18.818Z,10.70
2022-09-23T23:19:46.987Z,10.80
2022-09-23T23:22:14.974Z,10.70
2022-09-23T23:24:43.066Z,10.70
2022-09-23T23:27:11.051Z,10.70
2022-09-23T23:29:39.050Z,10.70
2022-09-23T23:32:09.763Z,10.70
2022-09-23T23:34:37.736Z,10.70
2022-09-23T23:37:05.794Z,10.70
2022-09-23T23:39:35.138Z,10.70
2022-09-23T23:42:04.778Z,10.70
2022-09-23T23:44:34.436Z,10.70
2022-09-23T23:47:02.809Z,10.70
2022-09-23T23:49:32.357Z,10.70
2022-09-23T23:52:00.245Z,10.70
2022-09-23T23:54:28.134Z,10.70
2022-09-23T23:56:56.105Z,10.50
2022-09-23T23:59:24.533Z,10.60
